Terminal Aerodrome Forecast
Issued by NWS Lake Charles, LA

Home | Current Version | Previous Version | Text Only | Print | Product List | Glossary On
Versions: 1 2 3 4 5 6 7 8 9 10 11 12
940
FTUS44 KLCH 242320
TAFARA
TAF
KARA 242320Z 2500/2524 17009KT P6SM SCT040
     FM251200 13006KT P6SM FEW015 SCT025
     FM251400 15012G19KT P6SM SCT015 BKN025
     FM251600 18014G21KT P6SM SCT025 BKN035=

USA.gov is the U.S. government's official web portal to all federal, state and local government web resources and services.